Time;durP1;ratioP1;P1;durP2;ratioP2;P2;SDS_P1;SDS_P2;PMS_P1;PMS_P2;Temp;Humidity;BMP_temperature;BMP_pressure;BME280_temperature;BME280_humidity;BME280_pressure;Samples;Min_cycle;Max_cycle;Signal;HPM_P1;HPM_P2
2022/04/22 00:02:25;;;;;;;22.87;11.27;;;;;;;11.28;49.14;99853.19;5414755;32;34728;-63
2022/04/22 00:05:27;;;;;;;18.70;10.47;;;;;;;11.35;49.78;99843.19;5432262;32;34156;-65
2022/04/22 00:08:30;;;;;;;18.57;10.87;;;;;;;11.32;49.60;99845.97;5414520;32;34754;-64
2022/04/22 00:11:32;;;;;;;19.80;11.45;;;;;;;11.48;49.52;99846.06;5415192;32;35200;-64
2022/04/22 00:14:41;;;;;;;23.10;11.80;;;;;;;11.04;50.83;99839.47;5431870;32;45076;-64
2022/04/22 00:17:43;;;;;;;20.83;11.53;;;;;;;11.71;49.00;99834.31;5409834;32;34091;-64
2022/04/22 00:20:45;;;;;;;18.53;11.23;;;;;;;11.84;48.72;99820.44;5429318;32;34582;-63
2022/04/22 00:23:49;;;;;;;19.27;10.77;;;;;;;12.52;46.26;99820.28;5411846;32;34743;-65
2022/04/22 00:26:51;;;;;;;;;;;;;;;11.80;47.53;99810.16;5424591;32;34940;-64
2022/04/22 00:29:53;;;;;;;20.17;11.63;;;;;;;10.64;51.34;99824.81;5417385;32;34595;-65
2022/04/22 00:32:55;;;;;;;20.43;12.43;;;;;;;10.52;52.22;99826.22;5414378;32;34848;-67
2022/04/22 00:40:13;;;;;;;18.77;11.20;;;;;;;10.75;51.62;99808.50;5415611;32;35867;-67
2022/04/22 00:47:20;;;;;;;19.77;11.65;;;;;;;10.43;51.89;99807.41;5417863;32;35929;-64
2022/04/22 00:50:22;;;;;;;24.27;12.13;;;;;;;10.37;53.18;99802.44;5405966;32;35168;-64
2022/04/22 00:53:25;;;;;;;19.63;11.77;;;;;;;10.99;51.58;99795.91;5428755;32;34114;-67
2022/04/22 00:56:27;;;;;;;19.12;12.35;;;;;;;10.84;50.51;99792.28;5416879;32;34761;-66
2022/04/22 00:59:32;;;;;;;18.30;11.60;;;;;;;10.34;52.84;99795.56;5415724;32;34647;-65
2022/04/22 01:02:34;;;;;;;20.07;12.00;;;;;;;10.51;51.88;99785.13;5429014;32;35284;-64
2022/04/22 01:12:18;;;;;;;19.70;11.50;;;;;;;11.49;49.36;99776.69;5415432;32;34880;-64
2022/04/22 01:15:22;;;;;;;22.25;12.68;;;;;;;11.76;46.83;99766.47;5413160;32;34496;-65
2022/04/22 01:18:24;;;;;;;21.77;11.82;;;;;;;11.80;47.76;99771.50;5421537;32;34675;-64
2022/04/22 01:21:26;;;;;;;18.60;10.97;;;;;;;11.25;48.60;99776.19;5415808;32;35138;-64
2022/04/22 01:24:28;;;;;;;17.83;11.20;;;;;;;11.19;48.48;99758.09;5430228;32;35267;-65
2022/04/22 01:27:30;;;;;;;21.43;12.00;;;;;;;11.34;46.63;99758.16;5409345;32;36378;-65
2022/04/22 01:30:32;;;;;;;19.70;11.40;;;;;;;10.75;50.12;99759.41;5425688;32;34657;-64
2022/04/22 01:33:35;;;;;;;18.50;11.03;;;;;;;10.74;49.79;99760.34;5417626;32;47371;-65
2022/04/22 01:36:37;;;;;;;19.07;11.27;;;;;;;10.54;49.20;99758.69;5414151;32;34521;-66
2022/04/22 01:39:39;;;;;;;18.57;11.70;;;;;;;10.76;49.03;99749.75;5429265;32;34911;-66
2022/04/22 01:42:42;;;;;;;20.27;11.80;;;;;;;10.76;49.96;99741.87;5412357;32;36281;-65
2022/04/22 01:45:44;;;;;;;20.47;11.27;;;;;;;10.62;49.72;99729.41;5431145;32;34389;-65
2022/04/22 01:48:46;;;;;;;22.03;11.20;;;;;;;10.67;48.68;99734.44;5395002;32;34921;-66
2022/04/22 01:51:48;;;;;;;17.37;10.90;;;;;;;11.25;46.49;99727.06;5423980;32;35122;-64
2022/04/22 01:54:51;;;;;;;21.53;11.87;;;;;;;10.80;49.29;99715.34;5420213;32;33621;-66
2022/04/22 01:57:54;;;;;;;23.80;12.15;;;;;;;10.49;49.29;99721.28;5414974;32;34505;-67
2022/04/22 02:00:56;;;;;;;18.77;11.35;;;;;;;10.12;50.27;99721.34;5430009;32;34962;-65
2022/04/22 02:03:58;;;;;;;18.63;11.47;;;;;;;10.41;50.10;99706.81;5414440;32;35290;-64
2022/04/22 02:07:00;;;;;;;23.17;11.93;;;;;;;11.01;47.64;99702.03;5426896;32;34543;-66
2022/04/22 02:10:03;;;;;;;17.47;10.73;;;;;;;10.45;48.41;99701.34;5411765;32;35311;-66
2022/04/22 02:13:05;;;;;;;20.20;10.83;;;;;;;10.02;49.54;99699.91;5421514;32;45062;-63
2022/04/22 02:16:08;;;;;;;19.03;10.80;;;;;;;10.38;48.59;99694.69;5421158;32;33923;-66
2022/04/22 02:19:10;;;;;;;16.60;9.90;;;;;;;11.88;45.39;99705.28;5417020;32;35542;-65
2022/04/22 02:22:14;;;;;;;16.33;10.33;;;;;;;10.12;47.94;99685.44;5422416;32;34928;-64
2022/04/22 02:25:16;;;;;;;16.30;10.27;;;;;;;10.72;47.45;99691.22;5411665;32;34652;-65
2022/04/22 02:28:33;;;;;;;17.47;9.80;;;;;;;11.47;45.13;99697.84;5429231;32;34892;-65
2022/04/22 02:31:35;;;;;;;18.63;9.50;;;;;;;9.73;48.96;99709.16;5414986;32;43783;-63
2022/04/22 02:34:37;;;;;;;20.87;10.50;;;;;;;11.12;45.17;99697.91;5416367;32;34077;-65
2022/04/22 02:37:40;;;;;;;15.70;9.47;;;;;;;11.00;45.55;99695.06;5431531;32;35749;-64
2022/04/22 02:47:43;;;;;;;19.10;10.30;;;;;;;10.14;48.39;99694.06;5314072;32;34853;-66
2022/04/22 02:50:45;;;;;;;18.10;9.43;;;;;;;9.90;48.91;99684.75;5331287;32;34819;-65
2022/04/22 02:53:47;;;;;;;18.90;9.83;;;;;;;10.66;46.93;99678.41;5427082;32;34486;-65
2022/04/22 02:56:50;;;;;;;20.53;10.87;;;;;;;10.39;47.06;99677.16;5415794;32;35196;-66
2022/04/22 02:59:53;;;;;;;20.45;10.82;;;;;;;9.84;49.27;99685.03;5416681;32;35024;-65
2022/04/22 03:02:55;;;;;;;20.05;11.07;;;;;;;10.69;46.56;99674.75;5415032;32;34889;-65
2022/04/22 03:05:58;;;;;;;17.93;11.27;;;;;;;11.19;45.51;99668.66;5428494;32;35178;-64
2022/04/22 03:09:00;;;;;;;23.40;12.07;;;;;;;11.04;45.91;99651.91;5421331;32;35346;-67
2022/04/22 03:12:02;;;;;;;20.13;10.50;;;;;;;11.46;45.40;99661.06;5413604;32;35398;-66
2022/04/22 03:15:05;;;;;;;22.77;10.23;;;;;;;10.47;47.41;99665.34;5432042;32;37356;-64
2022/04/22 03:18:08;;;;;;;20.10;10.80;;;;;;;9.87;49.41;99677.03;5416552;32;34499;-67
2022/04/22 03:21:10;;;;;;;19.25;9.90;;;;;;;9.64;49.84;99668.44;5441025;32;34118;-64
2022/04/22 03:24:14;;;;;;;18.83;10.13;;;;;;;9.99;49.12;99655.44;5414275;32;35184;-65
2022/04/22 03:27:17;;;;;;;17.10;9.73;;;;;;;10.32;48.23;99654.75;5420435;32;35251;-65
2022/04/22 03:30:19;;;;;;;21.37;11.57;;;;;;;10.63;46.56;99648.81;5422049;32;34946;-64
2022/04/22 03:33:21;;;;;;;16.67;9.93;;;;;;;10.94;46.25;99648.06;5416325;32;35312;-65
2022/04/22 03:36:23;;;;;;;18.13;10.03;;;;;;;10.53;47.48;99646.62;5431327;32;35183;-64
2022/04/22 03:39:25;;;;;;;24.97;11.03;;;;;;;10.38;47.64;99651.81;5426401;32;35039;-65
2022/04/22 03:42:28;;;;;;;20.67;11.07;;;;;;;10.54;47.50;99636.97;5430858;32;34958;-63
2022/04/22 03:45:31;;;;;;;19.62;10.25;;;;;;;10.33;47.83;99640.69;5414075;32;34715;-67
2022/04/22 03:48:33;;;;;;;17.63;10.30;;;;;;;10.18;47.95;99645.75;5400117;32;34605;-63
2022/04/22 03:51:36;;;;;;;22.30;10.70;;;;;;;9.73;49.49;99631.28;5420217;32;43699;-65
2022/04/22 03:54:38;;;;;;;21.80;10.00;;;;;;;10.07;49.37;99639.31;5416199;32;34771;-65
2022/04/22 04:01:01;;;;;;;18.17;10.27;;;;;;;10.11;49.05;99641.72;5415988;32;34205;-65
2022/04/22 04:04:03;;;;;;;16.70;9.97;;;;;;;10.63;48.24;99644.41;5431392;32;34967;-65
2022/04/22 04:07:05;;;;;;;19.47;10.30;;;;;;;11.05;46.85;99640.47;5415495;32;44515;-64
2022/04/22 04:17:03;;;;;;;17.77;10.43;;;;;;;10.91;46.98;99642.97;5385400;32;34630;-64
2022/04/22 04:23:27;;;;;;;17.47;9.37;;;;;;;10.27;49.17;99647.94;5424872;32;34006;-64
2022/04/22 04:26:29;;;;;;;15.70;9.93;;;;;;;11.51;45.80;99653.78;5411930;32;34796;-64
2022/04/22 04:29:34;;;;;;;22.60;10.17;;;;;;;11.28;45.74;99634.84;5422319;32;35392;-65
2022/04/22 04:32:36;;;;;;;18.70;10.43;;;;;;;11.19;45.81;99634.47;5415625;32;44580;-64
2022/04/22 04:35:38;;;;;;;17.53;10.40;;;;;;;10.99;46.05;99648.66;5429129;32;34208;-64
2022/04/22 04:38:42;;;;;;;19.10;10.10;;;;;;;11.46;45.01;99646.12;5415128;32;34620;-64
2022/04/22 04:41:44;;;;;;;18.25;10.18;;;;;;;10.46;47.07;99647.03;5417769;32;34759;-66
2022/04/22 04:44:46;;;;;;;18.37;10.63;;;;;;;10.70;46.99;99650.19;5414235;32;35532;-64
2022/04/22 04:47:49;;;;;;;17.20;10.23;;;;;;;11.54;44.94;99659.72;5395071;32;34724;-66
2022/04/22 04:50:51;;;;;;;21.02;11.27;;;;;;;11.78;44.71;99649.63;5410673;32;34666;-66
2022/04/22 04:53:53;;;;;;;18.33;10.30;;;;;;;10.51;47.15;99655.53;5416184;32;34425;-64
2022/04/22 04:56:55;;;;;;;17.73;10.53;;;;;;;11.06;45.81;99660.56;5429260;32;35052;-66
2022/04/22 04:59:57;;;;;;;19.63;11.33;;;;;;;11.35;45.60;99644.09;5416106;32;35640;-65
2022/04/22 05:03:00;;;;;;;21.83;10.87;;;;;;;10.51;47.35;99660.78;5416702;32;34147;-65
2022/04/22 05:06:03;;;;;;;22.17;11.90;;;;;;;11.02;46.58;99656.41;5427579;32;35085;-64
2022/04/22 05:09:05;;;;;;;17.90;10.77;;;;;;;11.36;45.20;99650.19;5414275;32;44418;-66
2022/04/22 05:12:10;;;;;;;24.33;11.27;;;;;;;10.75;46.69;99654.25;5427681;32;35360;-65
2022/04/22 05:15:13;;;;;;;21.23;10.70;;;;;;;11.20;45.86;99660.69;5411063;32;34610;-64
2022/04/22 05:18:15;;;;;;;23.50;11.83;;;;;;;11.22;45.85;99666.72;5420680;32;35193;-65
2022/04/22 05:21:17;;;;;;;19.00;11.00;;;;;;;11.46;45.00;99666.31;5414521;32;35201;-65
2022/04/22 05:24:20;;;;;;;18.97;11.20;;;;;;;10.97;46.15;99674.22;5414283;32;35460;-65
2022/04/22 05:27:22;;;;;;;25.03;12.40;;;;;;;11.69;44.26;99657.19;5426316;32;34880;-64
2022/04/22 05:33:45;;;;;;;29.97;13.37;;;;;;;12.49;42.75;99686.00;5424747;32;37661;-66
2022/04/22 05:36:47;;;;;;;29.90;12.80;;;;;;;12.10;43.35;99682.06;5414221;32;34774;-66
2022/04/22 05:39:49;;;;;;;26.17;11.83;;;;;;;12.03;43.49;99670.19;5420755;32;35140;-66
2022/04/22 05:42:53;;;;;;;24.93;11.27;;;;;;;12.06;43.19;99662.12;5419556;32;35483;-63
2022/04/22 05:45:55;;;;;;;20.33;11.77;;;;;;;11.60;44.11;99659.41;5409853;32;33993;-65
2022/04/22 05:48:57;;;;;;;25.00;11.30;;;;;;;11.86;43.65;99659.78;5397504;32;34891;-67
2022/04/22 05:51:59;;;;;;;21.73;12.50;;;;;;;11.08;45.81;99661.34;5411593;32;35259;-68
2022/04/22 05:55:03;;;;;;;23.90;12.67;;;;;;;11.15;45.84;99660.09;5421342;32;34319;-73
2022/04/22 05:58:05;;;;;;;29.20;11.87;;;;;;;10.94;46.52;99658.56;5413663;32;44573;-69
2022/04/22 06:01:07;;;;;;;35.53;12.20;;;;;;;11.68;44.45;99651.06;5411269;32;35741;-78
2022/04/22 06:04:09;;;;;;;20.13;11.27;;;;;;;12.19;43.24;99646.47;5429192;32;36398;-70
2022/04/22 06:07:12;;;;;;;22.77;11.90;;;;;;;11.97;43.51;99657.37;5403728;32;35215;-74
2022/04/22 06:10:32;;;;;;;25.93;13.20;;;;;;;11.76;44.21;99659.41;5425385;32;35430;-78
2022/04/22 06:13:35;;;;;;;52.57;18.37;;;;;;;11.52;44.69;99650.22;5411773;32;35608;-73
2022/04/22 06:16:38;;;;;;;402.87;37.53;;;;;;;12.44;42.89;99652.03;5424088;32;44584;-70
2022/04/22 06:19:41;;;;;;;28.07;11.63;;;;;;;12.39;43.39;99653.22;5407965;32;33889;-69
2022/04/22 06:22:43;;;;;;;26.60;13.10;;;;;;;11.79;44.07;99653.97;5411798;32;34467;-67
2022/04/22 06:25:48;;;;;;;101.43;22.80;;;;;;;11.38;45.18;99643.91;5422020;32;35253;-68
2022/04/22 06:28:52;;;;;;;21.00;12.43;;;;;;;12.12;44.28;99645.13;5394820;32;35289;-69
2022/04/22 06:31:55;;;;;;;28.67;12.40;;;;;;;12.09;42.93;99638.25;5423786;32;34082;-75
2022/04/22 06:34:57;;;;;;;54.60;13.93;;;;;;;12.42;42.63;99635.44;5413214;32;34151;-75
2022/04/22 06:38:03;;;;;;;28.60;11.83;;;;;;;11.46;44.92;99640.00;5424181;32;35878;-66
2022/04/22 06:47:50;;;;;;;29.02;11.30;;;;;;;12.65;41.92;99627.97;5406427;32;34277;-76
2022/04/22 06:50:56;;;;;;;25.17;12.60;;;;;;;12.14;42.18;99624.81;5407696;32;35095;-83
2022/04/22 06:53:59;;;;;;;24.37;13.03;;;;;;;12.55;41.83;99618.91;5421037;32;34147;-75
2022/04/22 06:57:01;;;;;;;17.73;11.10;;;;;;;12.57;41.99;99611.78;5405572;32;34231;-74
2022/04/22 07:00:05;;;;;;;23.12;10.73;;;;;;;13.64;39.66;99605.16;5394378;32;35158;-73
2022/04/22 07:03:08;;;;;;;22.42;10.63;;;;;;;13.66;39.13;99604.13;5420037;32;44450;-74
2022/04/22 07:06:11;;;;;;;20.33;10.80;;;;;;;12.82;40.71;99617.28;5403990;32;33916;-74
2022/04/22 07:09:14;;;;;;;22.95;11.70;;;;;;;13.17;40.65;99609.81;5417953;32;33978;-70
2022/04/22 07:12:17;;;;;;;22.92;11.85;;;;;;;12.89;40.43;99620.37;5418755;32;35312;-70
2022/04/22 07:15:20;;;;;;;26.40;13.55;;;;;;;12.12;42.24;99618.78;5421474;32;35143;-72
2022/04/22 07:18:22;;;;;;;28.67;13.13;;;;;;;11.54;43.92;99619.41;5420023;32;34076;-68
2022/04/22 07:21:25;;;;;;;24.03;11.63;;;;;;;11.62;43.91;99619.84;5418493;32;35339;-68
2022/04/22 07:24:27;;;;;;;24.92;11.43;;;;;;;12.18;42.40;99623.72;5429018;32;34176;-76
2022/04/22 07:27:33;;;;;;;23.27;11.80;;;;;;;12.41;41.62;99625.00;5408786;32;34399;-69
2022/04/22 07:30:35;;;;;;;24.17;11.13;;;;;;;12.62;41.65;99626.38;5411375;32;43148;-68
2022/04/22 07:33:38;;;;;;;25.83;11.00;;;;;;;12.64;41.26;99624.50;5416731;32;33755;-65
2022/04/22 07:36:40;;;;;;;25.83;11.83;;;;;;;12.22;42.51;99624.38;5416109;32;35360;-71
2022/04/22 07:39:45;;;;;;;21.47;11.53;;;;;;;12.96;41.29;99626.97;5420646;32;35490;-76
2022/04/22 07:49:32;;;;;;;23.73;11.77;;;;;;;12.39;44.78;99621.59;5399057;32;34291;-81
2022/04/22 07:52:38;;;;;;;22.87;12.00;;;;;;;12.33;45.00;99621.97;5418971;32;35570;-73
2022/04/22 07:55:40;;;;;;;22.43;10.63;;;;;;;12.15;45.77;99619.44;5427261;32;44321;-71
2022/04/22 07:58:43;;;;;;;18.25;12.10;;;;;;;12.39;45.46;99614.56;5418689;32;34084;-82
2022/04/22 08:01:45;;;;;;;23.67;12.63;;;;;;;12.64;46.65;99619.22;5415899;32;33983;-72
2022/04/22 08:04:48;;;;;;;19.90;11.83;;;;;;;12.54;48.25;99606.66;5410000;32;34257;-72
2022/04/22 08:07:50;;;;;;;19.10;11.73;;;;;;;12.86;46.92;99613.50;5429133;32;34162;-68
2022/04/22 08:10:52;;;;;;;25.90;12.93;;;;;;;12.38;49.32;99615.50;5419361;32;36699;-71
2022/04/22 08:13:55;;;;;;;28.20;12.73;;;;;;;12.93;47.42;99604.25;5416865;32;34293;-73
2022/04/22 08:16:59;;;;;;;19.40;12.37;;;;;;;12.90;48.33;99607.09;5429165;32;34425;-66
2022/04/22 08:20:01;;;;;;;;;;;;;;;12.82;49.56;99598.81;5417001;32;34861;-63
2022/04/22 08:23:04;;;;;;;20.80;11.50;;;;;;;12.55;50.01;99600.44;5430050;32;34388;-65
2022/04/22 08:26:07;;;;;;;19.20;12.43;;;;;;;12.29;50.73;99594.94;5406145;32;44331;-69
2022/04/22 08:29:09;;;;;;;18.10;11.25;;;;;;;11.98;53.77;99589.75;5430239;32;34119;-74
2022/04/22 08:32:11;;;;;;;21.70;12.87;;;;;;;12.74;51.59;99595.78;5418361;32;34210;-61
2022/04/22 08:35:14;;;;;;;25.13;12.73;;;;;;;12.41;53.10;99599.47;5415351;32;34308;-70
2022/04/22 08:38:17;;;;;;;21.27;13.20;;;;;;;13.10;51.16;99590.03;5432803;32;34204;-77
2022/04/22 08:41:21;;;;;;;18.87;12.18;;;;;;;11.87;56.60;99598.28;5391548;32;34042;-65
2022/04/22 08:44:23;;;;;;;19.73;12.93;;;;;;;11.77;56.02;99591.78;5426032;32;35232;-67
2022/04/22 08:50:51;;;;;;;22.93;14.27;;;;;;;11.10;60.77;99583.22;5411118;32;34230;-69
2022/04/22 08:53:56;;;;;;;19.83;13.80;;;;;;;12.48;58.55;99576.25;5416328;32;36157;-66
2022/04/22 08:56:58;;;;;;;22.50;12.77;;;;;;;13.72;55.07;99558.84;5416957;32;34102;-67
2022/04/22 09:00:07;;;;;;;21.70;13.43;;;;;;;12.84;57.13;99570.56;5427389;32;35661;-69
2022/04/22 09:03:09;;;;;;;19.90;13.20;;;;;;;11.73;60.60;99580.59;5410647;32;44824;-73
2022/04/22 09:06:13;;;;;;;24.47;13.90;;;;;;;12.03;60.49;99583.28;5431837;32;35311;-71
2022/04/22 09:09:15;;;;;;;24.02;14.45;;;;;;;12.76;57.04;99578.09;5409797;32;34046;-69
2022/04/22 09:12:20;;;;;;;19.73;14.35;;;;;;;12.43;60.22;99576.53;5405038;32;35594;-68
2022/04/22 09:15:25;;;;;;;30.43;19.20;;;;;;;12.65;61.46;99568.19;5425044;32;34046;-66
2022/04/22 09:18:27;;;;;;;26.83;18.47;;;;;;;13.00;60.77;99547.53;5423511;32;33792;-71
2022/04/22 09:21:29;;;;;;;25.50;14.93;;;;;;;13.28;61.37;99540.59;5408323;32;34547;-75
2022/04/22 09:24:48;;;;;;;21.30;14.23;;;;;;;12.56;63.11;99544.16;5423954;32;34014;-70
2022/04/22 09:27:50;;;;;;;25.63;15.17;;;;;;;12.60;61.16;99545.69;5408450;32;34900;-78
2022/04/22 09:31:03;;;;;;;24.67;14.87;;;;;;;12.25;63.50;99542.53;5420711;32;33244;-70
2022/04/22 09:34:06;;;;;;;21.33;13.60;;;;;;;12.74;61.29;99529.84;5408994;32;44350;-65
2022/04/22 09:44:14;;;;;;;22.40;15.70;;;;;;;11.37;68.40;99515.94;5412205;32;43290;-65
2022/04/22 09:47:16;;;;;;;24.60;14.50;;;;;;;10.88;68.84;99511.66;5416215;32;35907;-69
2022/04/22 09:50:39;;;;;;;21.70;13.85;;;;;;;10.96;69.34;99504.25;5388701;32;34126;-78
2022/04/22 09:53:43;;;;;;;23.30;14.97;;;;;;;12.17;65.48;99512.22;5420540;32;44535;-78
2022/04/22 09:56:56;;;;;;;29.40;17.77;;;;;;;11.19;68.58;99516.09;5414081;32;35630;-83
2022/04/22 09:59:58;;;;;;;29.23;16.80;;;;;;;11.82;67.35;99509.00;5411160;32;34513;-74
2022/04/22 10:03:01;;;;;;;22.37;14.77;;;;;;;11.69;68.49;99515.91;5423144;32;34302;-65
2022/04/22 10:06:04;;;;;;;21.10;15.07;;;;;;;12.35;63.63;99520.78;5414235;32;35352;-70
2022/04/22 10:09:09;;;;;;;24.90;15.75;;;;;;;12.32;63.41;99521.00;5419716;32;44566;-70
2022/04/22 10:12:14;;;;;;;24.73;16.10;;;;;;;11.93;66.50;99522.41;5410449;32;35064;-69
2022/04/22 10:15:19;;;;;;;22.47;15.23;;;;;;;11.98;64.99;99516.00;5426297;32;34197;-70
2022/04/22 10:18:22;;;;;;;26.90;16.67;;;;;;;12.27;64.03;99512.50;5419887;32;33435;-78
2022/04/22 10:21:25;;;;;;;27.07;17.63;;;;;;;12.64;62.98;99510.28;5409418;32;35523;-72
2022/04/22 10:24:28;;;;;;;23.47;16.70;;;;;;;12.43;65.39;99508.03;5423573;32;35053;-75
2022/04/22 10:27:33;;;;;;;26.83;16.70;;;;;;;12.47;65.53;99493.69;5387740;32;33138;-72
2022/04/22 10:30:40;;;;;;;23.07;15.13;;;;;;;12.39;66.74;99488.06;5424333;32;44674;-72
2022/04/22 10:33:44;;;;;;;20.13;13.80;;;;;;;12.30;66.89;99486.00;5404663;32;35823;-67
2022/04/22 10:36:54;;;;;;;19.43;12.77;;;;;;;12.59;65.02;99486.00;5421392;32;34068;-68
2022/04/22 10:39:57;;;;;;;19.93;14.33;;;;;;;11.49;66.29;99481.97;5426382;32;33900;-66
2022/04/22 10:43:01;;;;;;;18.80;13.03;;;;;;;11.93;67.36;99482.06;5412678;32;33994;-67
2022/04/22 10:49:35;;;;;;;19.80;13.17;;;;;;;11.56;66.28;99483.31;5392956;32;35772;-69
2022/04/22 10:53:02;;;;;;;22.67;14.43;;;;;;;12.27;63.14;99475.63;5422276;32;44360;-67
2022/04/22 10:56:26;;;;;;;20.30;13.97;;;;;;;12.39;62.37;99474.03;5410770;32;34107;-70
2022/04/22 10:59:32;;;;;;;23.57;13.53;;;;;;;12.46;63.59;99459.53;5421319;32;34325;-73
2022/04/22 11:02:43;;;;;;;21.13;13.50;;;;;;;13.35;60.24;99449.53;5417396;32;43598;-71
2022/04/22 11:05:49;;;;;;;22.83;13.20;;;;;;;13.11;59.95;99451.06;5416181;32;34202;-68
2022/04/22 11:09:02;;;;;;;20.27;13.07;;;;;;;12.13;63.31;99459.81;5408958;32;35265;-68
2022/04/22 11:12:05;;;;;;;21.58;13.10;;;;;;;12.91;60.17;99440.00;5426535;32;34214;-67
2022/04/22 11:15:10;;;;;;;18.37;13.30;;;;;;;12.92;60.86;99440.84;5412826;32;44497;-67
2022/04/22 11:18:15;;;;;;;22.83;12.60;;;;;;;12.30;61.91;99449.09;5427876;32;34184;-66
2022/04/22 11:21:17;;;;;;;24.10;14.40;;;;;;;13.38;57.96;99435.25;5418090;32;34482;-75
2022/04/22 11:24:28;;;;;;;19.17;12.30;;;;;;;14.38;55.25;99430.22;5418147;32;34097;-73
2022/04/22 11:27:31;;;;;;;22.07;13.23;;;;;;;13.13;57.27;99428.06;5423127;32;34236;-74
2022/04/22 11:30:33;;;;;;;20.47;12.10;;;;;;;14.05;54.92;99428.97;5410276;32;33971;-76
2022/04/22 11:34:07;;;;;;;19.67;12.37;;;;;;;13.87;54.72;99426.72;5429389;32;44576;-77
2022/04/22 11:37:18;;;;;;;20.47;11.83;;;;;;;12.91;56.52;99426.81;5413123;32;44481;-71
2022/04/22 11:40:20;;;;;;;18.20;11.40;;;;;;;14.25;52.20;99416.16;5418389;32;34111;-78
2022/04/22 11:43:22;;;;;;;17.70;10.90;;;;;;;14.39;52.09;99415.19;5427227;32;35136;-75
2022/04/22 11:46:25;;;;;;;17.23;11.12;;;;;;;15.91;46.08;99398.72;5413017;32;35563;-77
2022/04/22 11:49:30;;;;;;;15.98;10.27;;;;;;;14.57;49.20;99406.84;5403486;32;35271;-67
2022/04/22 11:52:32;;;;;;;23.00;10.97;;;;;;;15.22;46.51;99408.31;5411154;32;34946;-68
2022/04/22 11:55:38;;;;;;;17.37;9.83;;;;;;;15.71;44.19;99404.69;5428980;32;45983;-77
2022/04/22 11:58:41;;;;;;;16.83;10.67;;;;;;;14.75;45.86;99412.63;5414412;32;36917;-68
2022/04/22 12:08:25;;;;;;;13.90;9.10;;;;;;;14.98;42.46;99388.94;5414756;32;34100;-75
2022/04/22 12:11:28;;;;;;;16.98;10.38;;;;;;;14.61;42.62;99381.84;5429394;32;34652;-67
2022/04/22 12:14:30;;;;;;;16.60;10.63;;;;;;;14.12;43.84;99388.91;5416256;32;34483;-77
2022/04/22 12:17:32;;;;;;;15.70;9.30;;;;;;;14.34;43.63;99376.72;5416455;32;34129;-68
2022/04/22 12:20:36;;;;;;;15.20;9.93;;;;;;;15.07;41.12;99367.97;5430938;32;36156;-75
2022/04/22 12:23:45;;;;;;;;;;;;;;;14.77;41.84;99364.91;5417836;32;44720;-68
2022/04/22 12:26:47;;;;;;;14.33;8.57;;;;;;;14.68;42.62;99352.31;5428000;32;34514;-68
2022/04/22 12:30:09;;;;;;;14.10;8.60;;;;;;;14.22;41.54;99350.28;5407466;32;35571;-78
2022/04/22 12:33:19;;;;;;;13.93;8.73;;;;;;;15.13;40.36;99348.13;5419989;32;45333;-69
2022/04/22 12:36:21;;;;;;;13.57;8.50;;;;;;;14.98;40.31;99333.38;5418605;32;34672;-76
2022/04/22 12:39:32;;;;;;;12.23;7.93;;;;;;;14.51;40.88;99340.34;5414501;32;34099;-67
2022/04/22 12:42:36;;;;;;;12.27;8.13;;;;;;;14.88;40.14;99343.81;5433904;32;44141;-77
2022/04/22 12:52:23;;;;;;;12.70;7.90;;;;;;;15.52;37.21;99339.00;5425217;32;35685;-78
2022/04/22 12:55:26;;;;;;;11.83;6.93;;;;;;;15.79;36.71;99337.87;5417069;32;34571;-76
2022/04/22 12:58:28;;;;;;;16.10;7.33;;;;;;;15.23;37.09;99330.59;5432752;32;34260;-77
2022/04/22 13:01:37;;;;;;;13.35;7.45;;;;;;;15.15;37.68;99325.88;5416409;32;34183;-77
2022/04/22 13:04:53;;;;;;;11.87;7.17;;;;;;;15.06;37.60;99320.41;5430844;32;44656;-67
2022/04/22 13:07:56;;;;;;;15.53;6.80;;;;;;;15.38;37.14;99333.88;5422858;32;34285;-78
2022/04/22 13:11:00;;;;;;;12.10;7.15;;;;;;;15.91;35.71;99321.03;5418949;32;34872;-77
2022/04/22 13:14:03;;;;;;;12.90;7.07;;;;;;;15.61;36.55;99322.41;5432541;32;35203;-68
2022/04/22 13:17:05;;;;;;;13.40;7.07;;;;;;;15.17;37.46;99316.03;5415283;32;44848;-77
2022/04/22 13:20:09;;;;;;;12.83;6.90;;;;;;;14.99;37.60;99309.44;5434759;32;34868;-68
2022/04/22 13:23:11;;;;;;;14.07;7.20;;;;;;;14.73;37.50;99310.53;5417990;32;34244;-77
2022/04/22 13:26:13;;;;;;;13.23;6.77;;;;;;;15.12;36.70;99315.50;5413271;32;265310;-70
2022/04/22 13:29:16;;;;;;;12.70;7.73;;;;;;;15.47;35.61;99313.84;5422245;32;34583;-69
2022/04/22 13:32:18;;;;;;;11.93;6.68;;;;;;;14.59;37.47;99309.75;5416980;32;34715;-78
2022/04/22 13:35:21;;;;;;;13.13;7.40;;;;;;;15.03;37.23;99299.50;5432374;32;34360;-78
2022/04/22 13:38:23;;;;;;;14.55;7.97;;;;;;;15.18;36.91;99304.47;5415655;32;34450;-69
2022/04/22 13:41:26;;;;;;;14.32;7.10;;;;;;;15.01;36.85;99304.06;5432317;32;34846;-67
2022/04/22 13:54:31;;;;;;;16.27;7.60;;;;;;;14.96;37.79;99293.81;5419509;32;35831;-77
2022/04/22 13:57:33;;;;;;;12.70;7.28;;;;;;;14.99;37.82;99298.03;5430480;32;34702;-77
2022/04/22 14:00:35;;;;;;;11.47;7.37;;;;;;;15.59;36.33;99297.84;5420201;32;44603;-67
2022/04/22 14:03:37;;;;;;;16.27;7.67;;;;;;;14.70;38.27;99295.75;5417877;32;35730;-67
2022/04/22 14:06:40;;;;;;;14.13;8.27;;;;;;;14.08;40.25;99296.62;5435588;32;34827;-67
2022/04/22 14:09:42;;;;;;;14.13;8.18;;;;;;;15.04;38.78;99288.78;5418323;32;36986;-77
2022/04/22 14:12:45;;;;;;;13.60;8.80;;;;;;;14.44;40.42;99284.41;5433623;32;34842;-76
2022/04/22 14:15:47;;;;;;;17.55;8.95;;;;;;;14.47;40.31;99275.41;5418817;32;34745;-76
2022/04/22 14:18:50;;;;;;;14.83;8.30;;;;;;;14.46;40.20;99277.22;5436567;32;38078;-78
2022/04/22 14:21:52;;;;;;;18.05;8.18;;;;;;;15.25;38.57;99281.03;5422422;32;35300;-68
2022/04/22 14:24:55;;;;;;;18.70;10.47;;;;;;;15.65;37.84;99270.94;5420148;32;34252;-67
2022/04/22 14:27:57;;;;;;;14.32;8.43;;;;;;;15.28;38.92;99277.31;5432378;32;35025;-68
2022/04/22 14:31:01;;;;;;;14.00;8.97;;;;;;;15.25;38.82;99273.09;5420792;32;35685;-68
2022/04/22 14:34:03;;;;;;;13.43;8.50;;;;;;;15.12;38.87;99274.97;5435504;32;34990;-69
2022/04/22 14:37:08;;;;;;;14.00;8.73;;;;;;;14.84;39.58;99271.75;5403777;32;43620;-76
2022/04/22 14:40:11;;;;;;;15.13;8.50;;;;;;;14.16;40.81;99263.53;5403340;32;35273;-77
2022/04/22 14:43:13;;;;;;;14.90;8.47;;;;;;;14.33;40.80;99260.53;5403421;32;35334;-68
2022/04/22 14:46:16;;;;;;;15.77;9.97;;;;;;;14.69;39.46;99267.63;5401401;32;34908;-77
2022/04/22 14:49:20;;;;;;;13.67;8.23;;;;;;;14.39;40.03;99273.31;5385105;32;34787;-68
2022/04/22 14:52:22;;;;;;;;;;;;;;;14.74;39.19;99269.91;5412290;32;34825;-76
2022/04/22 14:55:24;;;;;;;13.50;8.67;;;;;;;14.82;39.22;99268.41;5436167;32;34568;-68
2022/04/22 14:58:27;;;;;;;15.50;8.47;;;;;;;14.76;39.31;99265.34;5419529;32;35159;-68
2022/04/22 15:01:29;;;;;;;13.48;9.02;;;;;;;14.01;40.51;99265.47;5432758;32;34255;-76
2022/04/22 15:04:32;;;;;;;16.40;8.75;;;;;;;14.31;40.08;99254.50;5420780;32;35194;-68
2022/04/22 15:07:36;;;;;;;16.85;9.05;;;;;;;14.03;41.13;99243.25;5419119;32;37291;-69
2022/04/22 15:10:38;;;;;;;16.37;8.73;;;;;;;13.94;41.17;99243.94;5436491;32;34043;-76
2022/04/22 15:13:40;;;;;;;18.70;8.53;;;;;;;13.77;41.52;99237.19;5418197;32;35066;-76
2022/04/22 15:16:43;;;;;;;17.10;8.33;;;;;;;13.95;41.46;99236.84;5434538;32;34852;-68
2022/04/22 15:26:26;;;;;;;16.40;8.50;;;;;;;14.56;39.79;99224.53;5431228;32;34453;-70
2022/04/22 15:29:29;;;;;;;12.53;7.97;;;;;;;14.59;39.64;99222.47;5416599;32;35024;-68
2022/04/22 15:32:33;;;;;;;13.63;8.40;;;;;;;14.50;39.29;99217.88;5430220;32;34886;-69
2022/04/22 15:35:35;;;;;;;14.83;7.80;;;;;;;14.37;40.13;99219.72;5418931;32;44825;-77
2022/04/22 15:38:41;;;;;;;15.70;8.40;;;;;;;14.29;39.92;99225.53;5429382;32;34627;-68
2022/04/22 15:41:44;;;;;;;12.30;7.60;;;;;;;14.35;39.75;99222.44;5428944;32;34470;-77
2022/04/22 15:44:47;;;;;;;15.43;8.00;;;;;;;14.16;40.05;99221.25;5417681;32;34935;-68